Portada
METAR-TAF:

METAR-TAF

Aeroports :

Hawarden, Gal·les

latitud: 53-10N, longitud: 002-59W, altitud: 10 m

Observació

L'informe es va fer fa 38 minuts, a les 16:50 UTC
Vent 11 kt del Sud
Temperatura 11°C
Humitat 76%
Pressió 1006 hPa
Visibilitat 10 km o més
Núvols disperses a una alçada de 1800 ft

METAR: EGNR 071650Z 19011KT 9999 SCT018 11/07 Q1006

Hora: 17:28 (17:28 UTC)

Pronòstic

L'informe es va fer fa 3 hores i 28 minuts, a les 14:00 UTC
Pronòstic vàlid del 07 a les 15 UTC al 07 a les 19 UTC
Vent 11 kt del Sud-Oest
Visibilitat 10 km o més
Núvols disperses a una alçada de 2000 ft
Temporalment
l' 07 a les 15 UTC al 07 a les 19 UTC
Vent 20 kt del Sud-Oest amb ràfegues de 30 kt

TAF: EGNR 071400Z 0715/0719 23011KT 9999 SCT020 TEMPO 0715/0719 23020G30KT

Observacions i pronòstics meteorològics de més de 4000 aeroports (METAR i TAF).

Les estacions disponibles són els punts grocs i vermells al mapa.

Posi el ratolí al punt desitjat per veure el nom de l'estació.

Feu clic per veure les observacions i els pronòstics meteorològics.

Per canviar el mapa: feu clic els botons verds amb una creu de color negre per apropar; al botó verd amb un guió per allunyar la imatge; o en les fletxes verdes per a mapes adjacents.


METAR-TAF: